Flight Track Log - Related Links

Times and Time Zones

All times are in EDT time to prevent confusion due to time zone crossing. See the N27XP flight status page for this flight to view local times or setup timezone preferences in your user account.

Time Position Orientation Groundspeed Altitude Reporting Facility
EDT Latitude Longitude Course Direction KTS MPH feet Rate Location/Type
Sun 11:17:05 33.2744 -87.5544 41° Northeast 213 245 3,300  Level Atlanta Center
Sun 11:17:52 33.3089 -87.5211 39° Northeast 227 261 4,600 1,850 Climbing Atlanta Center
Sun 11:18:52 33.3528 -87.4458 55° Northeast 246 283 6,600 2,500 Climbing Atlanta Center
Sun 11:19:52 33.3989 -87.3606 57° Northeast 279 321 9,600 2,550 Climbing Atlanta Center
Sun 11:20:52 33.4056 -87.2639 85° East 279 321 11,700 2,250 Climbing Atlanta Center
Sun 11:21:52 33.3978 -87.1639 95° East 288 331 14,100 2,200 Climbing Atlanta Center
Sun 11:22:52 33.3939 -87.0617 93° East 293 337 16,100 1,600 Climbing Atlanta Center
Sun 11:23:52 33.3925 -86.9497 91° East 313 360 17,300 1,250 Climbing Atlanta Center
Sun 11:24:52 33.4097 -86.8358 80° East 326 375 18,600 1,450 Climbing Atlanta Center
Sun 11:25:52 33.4228 -86.7169 82° East 347 399 20,200 1,550 Climbing Atlanta Center
Sun 11:26:52 33.4339 -86.5928 84° East 358 412 21,700 1,400 Climbing Atlanta Center
Sun 11:27:52 33.4467 -86.4686 83° East 369 425 23,000 1,450 Climbing Atlanta Center
Sun 11:28:52 33.4619 -86.3322 82° East 369 425 24,600 1,500 Climbing Atlanta Center
Sun 11:29:52 33.4811 -86.2006 80° East 379 436 26,000 1,250 Climbing Atlanta Center
Sun 11:30:52 33.5019 -86.0767 79° East 384 442 27,100 1,150 Climbing Atlanta Center
Sun 11:31:52 33.5250 -85.9450 78° East 390 449 28,300 1,250 Climbing Atlanta Center
Sun 11:32:52 33.5478 -85.8161 78° East 395 455 29,600 1,200 Climbing Atlanta Center
Sun 11:33:52 33.5703 -85.6842 78° East 397 457 30,700 1,150 Climbing Atlanta Center
Sun 11:34:52 33.5950 -85.5550 77° East 397 457 31,900 1,150 Climbing Atlanta Center
Sun 11:35:52 33.6175 -85.4258 78° East 391 450 33,000 1,050 Climbing Atlanta Center
Sun 11:36:52 33.6356 -85.2939 81° East 391 450 34,000 850 Climbing Atlanta Center
Sun 11:37:52 33.6556 -85.1769 78° East 396 456 34,700 500 Climbing Atlanta Center
Sun 11:38:52 33.6797 -85.0297 79° East 396 456 35,000 150 Climbing Atlanta Center
Sun 11:39:52 33.7036 -84.8853 79° East 403 464 35,000  Level Atlanta Center
Sun 11:40:52 33.7256 -84.7356 80° East 433 498 35,000  Level Atlanta Center
Sun 11:41:52 33.7514 -84.5858 78° East 454 522 35,000  Level Atlanta Center
Sun 11:42:52 33.7728 -84.4461 80° East 461 531 35,000  Level Atlanta Center
Sun 11:43:52 33.7981 -84.2939 79° East 466 536 35,000  Level Atlanta Center
Sun 11:44:52 33.8192 -84.1389 81° East 466 536 35,000  Level Atlanta Center
Sun 11:45:52 33.8444 -83.9864 79° East 466 536 35,000  Level Atlanta Center
Sun 11:46:52 33.8692 -83.8336 79° East 466 536 35,000  Level Atlanta Center
Sun 11:47:52 33.8939 -83.6833 79° East 466 536 35,000  Level Atlanta Center
Sun 11:48:52 33.9164 -83.5256 80° East 466 536 35,000  Level Atlanta Center
Sun 11:49:52 33.9406 -83.3753 79° East 466 536 35,000  Level Atlanta Center
Sun 11:51:52 34.0075 -83.0764 70° East 460 529 35,000  Level Atlanta Center
Sun 11:53:52 34.0819 -82.7772 75° East 460 529 35,000  Level Atlanta Center
Sun 11:54:52 34.1181 -82.6286 74° East 460 529 35,000  Level Atlanta Center
Sun 11:55:52 34.1536 -82.4775 74° East 460 529 35,000  Level Atlanta Center
Sun 11:56:52 34.1872 -82.3261 75° East 460 529 35,000  Level Atlanta Center
Sun 11:57:52 34.2225 -82.1747 74° East 460 529 35,000  Level Atlanta Center
Sun 11:58:52 34.2558 -82.0258 75° East 455 524 35,000  Level Atlanta Center
Sun 11:59:52 34.2928 -81.8739 74° East 455 524 35,000  Level Atlanta Center
Sun 12:01:32 34.3556 -81.6047 74° East 479 551 35,000  Level Jacksonville Center
Sun 12:02:32 34.3917 -81.4558 74° East 479 551 35,000  Level Jacksonville Center
Sun 12:03:32 34.4169 -81.3194 77° East 473 544 35,000  Level Jacksonville Center
Sun 12:04:32 34.4506 -81.1678 75° East 465 535 35,000 -200 Level Jacksonville Center
Sun 12:05:32 34.4897 -80.9981 74° East 465 535 34,600 -750 Descending Jacksonville Center
Sun 12:06:32 34.5231 -80.8489 75° East 465 535 33,500 -1,000 Descending Jacksonville Center
Sun 12:07:32 34.5481 -80.7247 76° East 465 535 32,600 -1,350 Descending Jacksonville Center
Sun 12:08:32 34.5947 -80.5444 72° East 465 535 30,800 -1,650 Descending Jacksonville Center
Sun 12:09:32 34.6272 -80.3922 75° East 465 535 29,300 -736 Descending Jacksonville Center
Sun 12:11:15 34.6736 -80.1403 77° East 461 531 28,800 -847 Descending Washington Center
Sun 12:12:15 34.7031 -79.9700 78° East 466 536 27,000 -2,000 Descending Washington Center
Sun 12:13:15 34.7294 -79.8147 78° East 466 536 24,800 -2,331 Descending Washington Center
Sun 12:14:16 34.7578 -79.6569 78° East 466 536 22,300 -2,459 Descending Washington Center
Sun 12:15:17 34.7672 -79.5058 86° East 466 536 19,800 -2,319 Descending Washington Center
Sun 12:16:15 34.7733 -79.3744 87° East 446 513 17,700 -2,168 Descending Washington Center
Sun 12:17:16 34.7825 -79.2181 86° East 423 487 15,500 -2,033 Descending Washington Center
Sun 12:18:16 34.7906 -79.0869 86° East 409 471 13,600 -1,686 Descending Washington Center
Sun 12:19:17 34.7981 -78.9661 86° East 376 433 12,100 -1,866 Descending Washington Center
Sun 12:20:15 34.8056 -78.8525 85° East 339 390 9,900 -1,983 Descending Washington Center
Sun 12:21:15 34.8250 -78.7494 77° East 322 371 8,200 -1,820 Descending Washington Center
Sun 12:22:17 34.8442 -78.6517 77° East 303 349 6,200 -2,016 Descending Washington Center
Sun 12:23:17 34.8797 -78.5642 64° Northeast 289 333 4,100 -1,780 Descending Washington Center
Sun 12:24:15 34.9047 -78.4792 70° East 276 318 2,700 -1,210 Descending Washington Center
Sun 12:25:16 34.9397 -78.4194 54° Northeast 241 277 1,700 -984 Descending Washington Center

Login

Don't have an account? Register now (free) for customized features, flight alerts, and more!